createdAt,value
2022-08-03T00:00:19.424Z,21.90
2022-08-03T00:00:51.258Z,21.90
2022-08-03T00:01:23.142Z,21.80
2022-08-03T00:01:55.966Z,21.80
2022-08-03T00:02:27.953Z,21.80
2022-08-03T00:02:59.810Z,21.80
2022-08-03T00:03:32.831Z,21.80
2022-08-03T00:04:06.970Z,21.80
2022-08-03T00:04:38.821Z,21.80
2022-08-03T00:05:11.640Z,21.80
2022-08-03T00:06:04.862Z,21.80
2022-08-03T00:06:37.366Z,21.70
2022-08-03T00:07:09.288Z,21.70
2022-08-03T00:07:41.773Z,21.70
2022-08-03T00:08:13.631Z,21.60
2022-08-03T00:08:52.523Z,21.60
2022-08-03T00:09:24.381Z,21.70
2022-08-03T00:09:56.242Z,21.60
2022-08-03T00:10:28.113Z,21.60
2022-08-03T00:11:01.317Z,21.60
2022-08-03T00:11:33.473Z,21.60
2022-08-03T00:12:06.210Z,21.60
2022-08-03T00:12:39.745Z,21.60
2022-08-03T00:13:13.172Z,21.60
2022-08-03T00:13:45.067Z,21.60
2022-08-03T00:14:17.874Z,21.60
2022-08-03T00:14:50.006Z,21.60
2022-08-03T00:15:21.876Z,21.60
2022-08-03T00:15:56.293Z,21.60
2022-08-03T00:16:28.194Z,21.50
2022-08-03T00:17:00.037Z,21.50
2022-08-03T00:17:52.618Z,21.50
2022-08-03T00:18:24.665Z,21.50
2022-08-03T00:18:56.517Z,21.50
2022-08-03T00:19:29.773Z,21.50
2022-08-03T00:20:02.618Z,21.50
2022-08-03T00:20:35.392Z,21.50
2022-08-03T00:21:07.485Z,21.50
2022-08-03T00:21:40.277Z,21.50
2022-08-03T00:22:12.125Z,21.50
2022-08-03T00:22:43.982Z,21.50
2022-08-03T00:23:17.005Z,21.50
2022-08-03T00:23:51.737Z,21.50
2022-08-03T00:24:24.530Z,21.50
2022-08-03T00:24:57.383Z,21.60
2022-08-03T00:25:29.848Z,21.50
2022-08-03T00:26:01.886Z,21.50
2022-08-03T00:26:34.698Z,21.50
2022-08-03T00:27:06.542Z,21.50
2022-08-03T00:27:38.377Z,21.60
2022-08-03T00:28:11.658Z,21.60
2022-08-03T00:28:43.531Z,21.60
2022-08-03T00:29:15.376Z,21.60
2022-08-03T00:29:59.927Z,21.60
2022-08-03T00:30:33.136Z,21.60
2022-08-03T00:31:05.970Z,21.50
2022-08-03T00:31:51.571Z,21.50
2022-08-03T00:32:24.916Z,21.50
2022-08-03T00:32:58.160Z,21.50
2022-08-03T00:33:58.172Z,21.40
2022-08-03T00:34:36.652Z,21.40
2022-08-03T00:35:32.539Z,21.40
2022-08-03T00:36:10.026Z,21.30
2022-08-03T00:36:41.861Z,21.30
2022-08-03T00:37:13.707Z,21.30
2022-08-03T00:37:46.542Z,21.30
2022-08-03T00:38:18.502Z,21.30
2022-08-03T00:38:51.326Z,21.30
2022-08-03T00:39:23.146Z,21.30
2022-08-03T00:39:54.979Z,21.30
2022-08-03T00:40:33.159Z,21.30
2022-08-03T00:41:05.046Z,21.30
2022-08-03T00:41:36.932Z,21.20
2022-08-03T00:42:09.896Z,21.30
2022-08-03T00:42:53.582Z,21.30
2022-08-03T00:43:26.631Z,21.30
2022-08-03T00:43:59.487Z,21.20
2022-08-03T00:44:31.610Z,21.20
2022-08-03T00:45:03.923Z,21.20
2022-08-03T00:45:38.445Z,21.20
2022-08-03T00:46:10.557Z,21.20
2022-08-03T00:46:42.536Z,21.20
2022-08-03T00:47:15.345Z,21.20
2022-08-03T00:47:47.689Z,21.20
2022-08-03T00:48:33.505Z,21.20
2022-08-03T00:49:06.799Z,21.20
2022-08-03T00:49:40.037Z,21.20
2022-08-03T00:50:13.637Z,21.20
2022-08-03T00:50:48.921Z,21.20
2022-08-03T00:51:26.302Z,21.20
2022-08-03T00:51:59.347Z,21.20
2022-08-03T00:52:32.198Z,21.10
2022-08-03T00:53:06.565Z,21.10
2022-08-03T00:53:38.766Z,21.10
2022-08-03T00:54:11.776Z,21.10
2022-08-03T00:54:43.636Z,21.10
2022-08-03T00:55:15.830Z,21.10
2022-08-03T00:55:48.801Z,21.10
2022-08-03T00:56:20.648Z,21.10
2022-08-03T00:56:59.256Z,21.10
2022-08-03T00:57:33.866Z,21.10
2022-08-03T00:58:06.659Z,21.10
2022-08-03T00:58:39.521Z,21.10
2022-08-03T00:59:11.545Z,21.10
2022-08-03T00:59:46.450Z,21.10
2022-08-03T01:00:22.847Z,21.20
2022-08-03T01:00:54.904Z,21.20
2022-08-03T01:01:26.860Z,21.10
2022-08-03T01:02:05.501Z,21.10
2022-08-03T01:02:37.830Z,21.10
2022-08-03T01:03:12.030Z,21.10
2022-08-03T01:03:44.919Z,21.10
2022-08-03T01:04:16.954Z,21.10
2022-08-03T01:04:48.807Z,21.10
2022-08-03T01:05:22.228Z,21.20
2022-08-03T01:06:00.621Z,21.00
2022-08-03T01:06:39.834Z,21.10
2022-08-03T01:07:18.969Z,21.10
2022-08-03T01:08:01.870Z,21.10
2022-08-03T01:08:45.040Z,21.00
2022-08-03T01:09:23.086Z,21.00
2022-08-03T01:10:01.696Z,21.00
2022-08-03T01:10:42.785Z,21.00
2022-08-03T01:11:24.024Z,21.00
2022-08-03T01:12:04.038Z,21.00
2022-08-03T01:12:44.393Z,21.00
2022-08-03T01:13:59.951Z,21.00
2022-08-03T01:14:26.301Z,21.00
2022-08-03T01:15:02.839Z,20.90
2022-08-03T01:15:43.337Z,20.90
2022-08-03T01:16:20.253Z,20.90
2022-08-03T01:17:00.058Z,20.90
2022-08-03T01:17:40.002Z,20.90
2022-08-03T01:18:21.244Z,20.90
2022-08-03T01:19:01.879Z,20.90
2022-08-03T01:19:45.371Z,21.00
2022-08-03T01:20:21.712Z,20.90
2022-08-03T01:21:01.649Z,20.90
2022-08-03T01:21:41.481Z,20.90
2022-08-03T01:22:51.726Z,20.90
2022-08-03T01:23:44.637Z,20.90
2022-08-03T01:24:34.334Z,20.90
2022-08-03T01:25:16.927Z,20.90
2022-08-03T01:26:03.144Z,20.90
2022-08-03T01:26:51.610Z,20.90
2022-08-03T01:27:30.334Z,20.90
2022-08-03T01:28:27.762Z,20.90
2022-08-03T01:29:17.221Z,20.90
2022-08-03T01:30:00.996Z,20.90
2022-08-03T01:30:35.228Z,20.80
2022-08-03T01:31:08.426Z,20.80
2022-08-03T01:32:58.564Z,20.80
2022-08-03T01:32:59.008Z,20.80
2022-08-03T01:33:40.159Z,20.80
2022-08-03T01:34:15.972Z,20.80
2022-08-03T01:34:52.441Z,20.80
2022-08-03T01:35:30.308Z,20.90
2022-08-03T01:36:05.149Z,20.80
2022-08-03T01:36:40.576Z,20.80
2022-08-03T01:37:16.799Z,20.80
2022-08-03T01:37:53.167Z,20.80
2022-08-03T01:38:29.941Z,20.80
2022-08-03T01:39:09.254Z,20.80
2022-08-03T01:39:42.961Z,20.80
2022-08-03T01:40:17.114Z,20.80
2022-08-03T01:40:51.695Z,20.80
2022-08-03T01:41:29.098Z,20.80
2022-08-03T01:42:06.404Z,20.80
2022-08-03T01:42:41.068Z,20.80
2022-08-03T01:44:26.194Z,20.90
2022-08-03T01:44:30.116Z,20.80
2022-08-03T01:45:05.447Z,20.80
2022-08-03T01:45:39.467Z,20.70
2022-08-03T01:46:12.920Z,20.70
2022-08-03T01:46:49.149Z,20.70
2022-08-03T01:47:23.317Z,20.70
2022-08-03T01:47:56.500Z,20.70
2022-08-03T01:48:28.887Z,20.70
2022-08-03T01:49:09.298Z,20.70
2022-08-03T01:49:45.248Z,20.70
2022-08-03T01:50:20.949Z,20.70
2022-08-03T01:50:56.861Z,20.70
2022-08-03T01:52:03.894Z,20.70
2022-08-03T01:52:22.638Z,20.70
2022-08-03T01:52:56.452Z,20.70
2022-08-03T01:53:31.366Z,20.70
2022-08-03T01:54:05.761Z,20.70
2022-08-03T01:54:45.496Z,20.70
2022-08-03T01:55:20.403Z,20.70
2022-08-03T01:55:55.331Z,20.70
2022-08-03T01:56:29.178Z,20.70
2022-08-03T01:57:03.522Z,20.70
2022-08-03T01:58:04.795Z,20.70
2022-08-03T01:58:30.609Z,20.70
2022-08-03T01:59:04.053Z,20.70
2022-08-03T01:59:37.415Z,20.70
2022-08-03T02:00:12.089Z,20.60
2022-08-03T02:00:45.723Z,20.70
2022-08-03T02:01:19.939Z,20.70
2022-08-03T02:02:28.907Z,20.70
2022-08-03T02:02:50.316Z,20.70
2022-08-03T02:03:24.344Z,20.70
2022-08-03T02:04:01.207Z,20.70
2022-08-03T02:04:35.991Z,20.70
2022-08-03T02:05:11.738Z,20.70
2022-08-03T02:05:45.767Z,20.70
2022-08-03T02:07:00.098Z,20.70
2022-08-03T02:07:14.127Z,20.70
2022-08-03T02:07:48.809Z,20.70
2022-08-03T02:08:22.313Z,20.70
2022-08-03T02:08:55.833Z,20.80
2022-08-03T02:09:31.506Z,20.60
2022-08-03T02:10:05.871Z,20.60
2022-08-03T02:10:40.409Z,20.60
2022-08-03T02:11:13.158Z,20.60
2022-08-03T02:11:46.624Z,20.60
2022-08-03T02:12:21.363Z,20.60
2022-08-03T02:12:54.593Z,20.60
2022-08-03T02:13:27.666Z,20.60
2022-08-03T02:14:04.547Z,20.60
2022-08-03T02:14:39.157Z,20.60
2022-08-03T02:15:16.117Z,20.50
2022-08-03T02:15:49.217Z,20.50
2022-08-03T02:16:23.331Z,20.50
2022-08-03T02:16:57.778Z,20.50
2022-08-03T02:17:39.832Z,20.50
2022-08-03T02:18:14.154Z,20.50
2022-08-03T02:18:47.945Z,20.50
2022-08-03T02:19:21.135Z,20.50
2022-08-03T02:19:54.823Z,20.50
2022-08-03T02:20:28.635Z,20.50
2022-08-03T02:21:01.735Z,20.50
2022-08-03T02:21:56.530Z,20.50
2022-08-03T02:22:34.809Z,20.40
2022-08-03T02:23:07.887Z,20.40
2022-08-03T02:23:41.120Z,20.40
2022-08-03T02:24:13.073Z,20.40
2022-08-03T02:24:45.950Z,20.40
2022-08-03T02:25:23.522Z,20.40
2022-08-03T02:25:59.947Z,20.40
2022-08-03T02:26:37.890Z,20.40
2022-08-03T02:27:15.034Z,20.40
2022-08-03T02:27:59.393Z,20.40
2022-08-03T02:28:34.551Z,20.40
2022-08-03T02:29:11.297Z,20.30
2022-08-03T02:29:48.959Z,20.30
2022-08-03T02:30:27.182Z,20.30
2022-08-03T02:31:00.350Z,20.30
2022-08-03T02:31:37.973Z,20.30
2022-08-03T02:32:13.136Z,20.20
2022-08-03T02:32:54.518Z,20.30
2022-08-03T02:33:31.566Z,20.20
2022-08-03T02:34:09.749Z,20.20
2022-08-03T02:34:44.244Z,20.00
2022-08-03T02:35:19.491Z,20.10
2022-08-03T02:35:52.782Z,20.10
2022-08-03T02:36:28.923Z,20.10
2022-08-03T02:37:06.672Z,20.20
2022-08-03T02:37:51.862Z,20.20
2022-08-03T02:38:28.257Z,20.20
2022-08-03T02:39:03.257Z,20.20
2022-08-03T02:39:36.722Z,20.10
2022-08-03T02:40:12.013Z,20.20
2022-08-03T02:40:46.550Z,20.20
2022-08-03T02:41:23.165Z,20.20
2022-08-03T02:42:02.227Z,20.20
2022-08-03T02:42:37.089Z,20.20
2022-08-03T02:43:13.535Z,20.20
2022-08-03T02:44:05.739Z,20.20
2022-08-03T02:44:41.559Z,20.20
2022-08-03T02:45:16.490Z,20.20
2022-08-03T02:45:51.417Z,20.20
2022-08-03T02:46:28.390Z,20.20
2022-08-03T02:47:04.940Z,20.10
2022-08-03T02:47:54.132Z,20.10
2022-08-03T02:48:29.298Z,20.10
2022-08-03T02:49:49.445Z,20.10
2022-08-03T02:49:56.917Z,20.10
2022-08-03T02:50:30.758Z,20.10
2022-08-03T02:51:04.225Z,20.10
2022-08-03T02:51:38.599Z,20.10
2022-08-03T02:52:12.738Z,20.10
2022-08-03T02:52:49.091Z,20.10
2022-08-03T02:53:23.291Z,20.10
2022-08-03T02:53:56.438Z,20.10
2022-08-03T02:54:29.701Z,20.10
2022-08-03T02:55:04.099Z,20.10
2022-08-03T02:55:36.694Z,20.10
2022-08-03T02:56:17.445Z,20.10
2022-08-03T02:56:50.333Z,20.10
2022-08-03T02:57:24.821Z,20.10
2022-08-03T02:58:01.292Z,20.10
2022-08-03T02:58:34.648Z,20.10
2022-08-03T02:59:07.344Z,20.10
2022-08-03T02:59:41.222Z,20.10
2022-08-03T03:00:13.761Z,20.10
2022-08-03T03:01:04.131Z,20.10
2022-08-03T03:01:37.071Z,20.10
2022-08-03T03:02:10.211Z,20.10
2022-08-03T03:02:44.441Z,20.10
2022-08-03T03:03:17.447Z,20.20
2022-08-03T03:03:53.681Z,20.10
2022-08-03T03:04:32.178Z,20.10
2022-08-03T03:05:54.898Z,20.20
2022-08-03T03:05:59.809Z,20.20
2022-08-03T03:06:32.453Z,20.20
2022-08-03T03:07:04.676Z,20.10
2022-08-03T03:07:52.132Z,20.10
2022-08-03T03:08:28.278Z,20.20
2022-08-03T03:09:01.075Z,20.20
2022-08-03T03:09:40.276Z,20.10
2022-08-03T03:10:12.665Z,20.10
2022-08-03T03:10:45.626Z,20.10
2022-08-03T03:11:21.766Z,20.10
2022-08-03T03:11:54.883Z,20.10
2022-08-03T03:12:27.790Z,20.10
2022-08-03T03:13:01.892Z,20.10
2022-08-03T03:13:34.358Z,20.10
2022-08-03T03:14:07.278Z,20.10
2022-08-03T03:14:41.690Z,20.10
2022-08-03T03:15:13.591Z,20.00
2022-08-03T03:15:46.563Z,20.10
2022-08-03T03:16:21.781Z,20.00
2022-08-03T03:16:57.828Z,20.10
2022-08-03T03:17:30.726Z,20.10
2022-08-03T03:18:04.387Z,20.10
2022-08-03T03:18:37.869Z,20.10
2022-08-03T03:19:13.114Z,20.10
2022-08-03T03:19:46.948Z,20.10
2022-08-03T03:20:29.055Z,20.10
2022-08-03T03:21:03.180Z,20.10
2022-08-03T03:21:37.667Z,20.10
2022-08-03T03:22:09.931Z,20.10
2022-08-03T03:22:43.512Z,20.10
2022-08-03T03:23:17.878Z,20.00
2022-08-03T03:23:51.540Z,20.10
2022-08-03T03:24:23.572Z,20.00
2022-08-03T03:24:56.329Z,20.00
2022-08-03T03:25:31.650Z,20.00
2022-08-03T03:26:04.971Z,20.00
2022-08-03T03:26:40.702Z,20.00
2022-08-03T03:27:16.617Z,20.10
2022-08-03T03:27:50.827Z,20.00
2022-08-03T03:28:23.473Z,20.00
2022-08-03T03:28:57.729Z,20.00
2022-08-03T03:29:30.285Z,20.00
2022-08-03T03:30:11.458Z,20.00
2022-08-03T03:30:44.744Z,20.00
2022-08-03T03:31:26.146Z,20.00
2022-08-03T03:31:58.171Z,20.00
2022-08-03T03:32:34.328Z,20.00
2022-08-03T03:33:06.316Z,20.00
2022-08-03T03:33:39.064Z,20.00
2022-08-03T03:34:11.924Z,20.10
2022-08-03T03:34:44.331Z,20.10
2022-08-03T03:35:16.740Z,20.10
2022-08-03T03:35:50.091Z,20.10
2022-08-03T03:36:23.005Z,20.10
2022-08-03T03:36:54.893Z,20.10
2022-08-03T03:37:26.946Z,20.10
2022-08-03T03:37:59.784Z,20.00
2022-08-03T03:38:32.646Z,20.10
2022-08-03T03:39:15.414Z,20.10
2022-08-03T03:39:49.134Z,20.10
2022-08-03T03:40:21.758Z,20.10
2022-08-03T03:40:53.860Z,20.10
2022-08-03T03:41:26.753Z,20.10
2022-08-03T03:41:59.882Z,20.10
2022-08-03T03:42:32.519Z,20.10
2022-08-03T03:43:09.637Z,20.10
2022-08-03T03:43:41.693Z,20.10
2022-08-03T03:44:14.001Z,20.10
2022-08-03T03:44:46.854Z,20.10
2022-08-03T03:45:19.417Z,20.10
2022-08-03T03:45:52.948Z,20.10
2022-08-03T03:46:27.353Z,20.10
2022-08-03T03:46:59.293Z,20.10
2022-08-03T03:47:32.957Z,20.10
2022-08-03T03:48:07.233Z,20.10
2022-08-03T03:48:39.504Z,20.10
2022-08-03T03:49:12.986Z,20.20
2022-08-03T03:49:46.531Z,20.20
2022-08-03T03:50:22.272Z,20.20
2022-08-03T03:50:54.365Z,20.20
2022-08-03T03:51:27.279Z,20.20
2022-08-03T03:51:59.186Z,20.20
2022-08-03T03:52:32.418Z,20.20
2022-08-03T03:53:05.644Z,20.20
2022-08-03T03:53:42.242Z,20.30
2022-08-03T03:54:15.159Z,20.20
2022-08-03T03:54:47.010Z,20.20
2022-08-03T03:55:19.057Z,20.20
2022-08-03T03:55:59.317Z,20.20
2022-08-03T03:56:34.213Z,20.20
2022-08-03T03:57:06.119Z,20.20
2022-08-03T03:57:38.956Z,20.20
2022-08-03T03:58:10.909Z,20.20
2022-08-03T03:58:42.759Z,20.20
2022-08-03T03:59:15.843Z,20.20
2022-08-03T03:59:47.701Z,20.20
2022-08-03T04:00:19.671Z,20.20
2022-08-03T04:00:53.883Z,20.20
2022-08-03T04:01:27.394Z,20.20
2022-08-03T04:01:59.692Z,20.20
2022-08-03T04:02:32.599Z,20.10
2022-08-03T04:03:04.550Z,20.20
2022-08-03T04:03:37.383Z,20.10
2022-08-03T04:04:27.552Z,20.10
2022-08-03T04:05:23.483Z,20.10
2022-08-03T04:06:13.974Z,20.10
2022-08-03T04:07:04.697Z,20.00
2022-08-03T04:08:04.795Z,20.00
2022-08-03T04:08:55.298Z,20.00
2022-08-03T04:09:45.953Z,20.00
2022-08-03T04:10:39.853Z,20.00
2022-08-03T04:11:17.601Z,19.90
2022-08-03T04:11:52.468Z,19.90
2022-08-03T04:12:28.146Z,19.90
2022-08-03T04:13:03.055Z,19.90
2022-08-03T04:13:39.756Z,19.90
2022-08-03T04:14:17.554Z,19.90
2022-08-03T04:14:50.831Z,19.90
2022-08-03T04:15:24.013Z,19.90
2022-08-03T04:15:57.557Z,19.90
2022-08-03T04:16:34.509Z,19.90
2022-08-03T04:17:09.210Z,19.90
2022-08-03T04:17:42.489Z,19.90
2022-08-03T04:18:16.697Z,19.90
2022-08-03T04:18:54.053Z,19.90
2022-08-03T04:19:31.782Z,19.90
2022-08-03T04:20:05.425Z,19.90
2022-08-03T04:20:38.912Z,19.90
2022-08-03T04:21:14.115Z,19.90
2022-08-03T04:21:50.435Z,19.90
2022-08-03T04:22:26.119Z,20.00
2022-08-03T04:23:00.964Z,19.90
2022-08-03T04:23:35.639Z,20.00
2022-08-03T04:24:10.806Z,19.90
2022-08-03T04:24:49.215Z,19.90
2022-08-03T04:25:24.917Z,19.90
2022-08-03T04:25:57.710Z,19.90
2022-08-03T04:26:34.230Z,19.80
2022-08-03T04:27:10.290Z,19.80
2022-08-03T04:27:44.557Z,19.80
2022-08-03T04:28:39.641Z,19.90
2022-08-03T04:29:14.610Z,19.80
2022-08-03T04:29:48.886Z,19.80
2022-08-03T04:30:22.120Z,19.80
2022-08-03T04:30:57.721Z,19.80
2022-08-03T04:31:31.110Z,19.80
2022-08-03T04:32:06.518Z,19.80
2022-08-03T04:32:44.142Z,19.70
2022-08-03T04:33:20.346Z,19.80
2022-08-03T04:33:55.793Z,19.70
2022-08-03T04:34:27.938Z,19.80
2022-08-03T04:35:01.321Z,19.70
2022-08-03T04:35:59.782Z,19.70
2022-08-03T04:36:30.233Z,19.70
2022-08-03T04:37:05.901Z,19.70
2022-08-03T04:37:41.714Z,19.70
2022-08-03T04:38:16.529Z,19.70
2022-08-03T04:39:00.902Z,19.70
2022-08-03T04:39:34.360Z,19.70
2022-08-03T04:40:09.421Z,19.70
2022-08-03T04:40:43.764Z,19.70
2022-08-03T04:41:16.832Z,19.70
2022-08-03T04:42:07.103Z,19.70
2022-08-03T04:42:42.010Z,19.70
2022-08-03T04:43:16.610Z,19.70
2022-08-03T04:43:52.506Z,19.70
2022-08-03T04:44:28.369Z,19.70
2022-08-03T04:45:02.768Z,19.70
2022-08-03T04:45:36.673Z,19.60
2022-08-03T04:46:09.864Z,19.70
2022-08-03T04:46:46.780Z,19.70
2022-08-03T04:47:26.343Z,19.70
2022-08-03T04:47:58.958Z,19.70
2022-08-03T04:48:35.251Z,19.70
2022-08-03T04:49:08.523Z,19.70
2022-08-03T04:49:40.878Z,19.70
2022-08-03T04:50:15.991Z,19.70
2022-08-03T04:50:54.870Z,19.80
2022-08-03T04:51:26.929Z,19.80
2022-08-03T04:51:59.061Z,19.70
2022-08-03T04:52:32.053Z,19.80
2022-08-03T04:53:05.965Z,19.80
2022-08-03T04:53:39.150Z,19.80
2022-08-03T04:54:13.609Z,19.80
2022-08-03T04:54:50.516Z,19.80
2022-08-03T04:55:27.274Z,19.90
2022-08-03T04:56:05.791Z,19.80
2022-08-03T04:56:40.048Z,19.80
2022-08-03T04:57:22.166Z,19.90
2022-08-03T04:57:56.270Z,19.90
2022-08-03T04:58:28.360Z,19.90
2022-08-03T04:59:00.280Z,19.90
2022-08-03T04:59:32.178Z,19.90
2022-08-03T05:00:06.696Z,20.00
2022-08-03T05:00:38.644Z,20.00
2022-08-03T05:01:10.689Z,20.00
2022-08-03T05:01:45.069Z,20.10
2022-08-03T05:02:17.164Z,20.10
2022-08-03T05:02:49.734Z,20.20
2022-08-03T05:03:24.286Z,20.20
2022-08-03T05:03:56.966Z,20.20
2022-08-03T05:04:28.876Z,20.20
2022-08-03T05:05:01.710Z,20.20
2022-08-03T05:05:48.814Z,20.20
2022-08-03T05:06:25.120Z,20.30
2022-08-03T05:06:57.106Z,20.30
2022-08-03T05:07:36.073Z,20.30
2022-08-03T05:08:11.246Z,20.30
2022-08-03T05:08:47.059Z,20.30
2022-08-03T05:09:49.927Z,20.40
2022-08-03T05:10:16.018Z,20.40
2022-08-03T05:10:48.532Z,20.40
2022-08-03T05:11:21.478Z,20.40
2022-08-03T05:11:53.493Z,20.40
2022-08-03T05:12:28.361Z,20.40
2022-08-03T05:13:05.278Z,20.40
2022-08-03T05:13:37.154Z,20.40
2022-08-03T05:14:09.034Z,20.30
2022-08-03T05:14:42.182Z,20.30
2022-08-03T05:15:14.402Z,20.30
2022-08-03T05:15:46.224Z,20.30
2022-08-03T05:16:19.089Z,20.30
2022-08-03T05:16:52.299Z,20.30
2022-08-03T05:17:24.306Z,20.30
2022-08-03T05:17:57.135Z,20.30
2022-08-03T05:18:29.018Z,20.30
2022-08-03T05:19:01.996Z,20.30
2022-08-03T05:19:33.964Z,20.40
2022-08-03T05:20:06.897Z,20.40
2022-08-03T05:20:38.857Z,20.40
2022-08-03T05:21:13.852Z,20.40
2022-08-03T05:21:52.620Z,20.40
2022-08-03T05:22:24.955Z,20.40
2022-08-03T05:22:58.363Z,20.50
2022-08-03T05:23:30.228Z,20.50
2022-08-03T05:24:02.133Z,20.50
2022-08-03T05:24:34.978Z,20.50
2022-08-03T05:25:07.552Z,20.50
2022-08-03T05:25:39.512Z,20.50
2022-08-03T05:26:12.717Z,20.50
2022-08-03T05:26:44.558Z,20.50
2022-08-03T05:27:19.042Z,20.50
2022-08-03T05:27:51.901Z,20.60
2022-08-03T05:28:23.782Z,20.50
2022-08-03T05:28:55.622Z,20.60
2022-08-03T05:29:28.487Z,20.60
2022-08-03T05:30:30.907Z,20.60
2022-08-03T05:30:53.235Z,20.60
2022-08-03T05:31:25.081Z,20.60
2022-08-03T05:31:58.303Z,20.60
2022-08-03T05:32:31.176Z,20.60
2022-08-03T05:33:03.678Z,20.60
2022-08-03T05:33:35.578Z,20.60
2022-08-03T05:34:08.429Z,20.60
2022-08-03T05:34:40.255Z,20.60
2022-08-03T05:36:02.594Z,20.60
2022-08-03T05:36:05.487Z,20.60
2022-08-03T05:36:37.338Z,20.50
2022-08-03T05:37:09.432Z,20.50
2022-08-03T05:37:42.263Z,20.60
2022-08-03T05:38:28.926Z,20.60
2022-08-03T05:39:08.009Z,20.60
2022-08-03T05:39:39.889Z,20.50
2022-08-03T05:40:13.027Z,20.50
2022-08-03T05:41:20.585Z,20.50
2022-08-03T05:41:37.742Z,20.60
2022-08-03T05:42:10.753Z,20.60
2022-08-03T05:42:42.641Z,20.60
2022-08-03T05:43:14.527Z,20.60
2022-08-03T05:43:47.515Z,20.50
2022-08-03T05:44:19.366Z,20.60
2022-08-03T05:44:52.225Z,20.60
2022-08-03T05:45:28.276Z,20.60
2022-08-03T05:46:12.120Z,20.60
2022-08-03T05:46:45.918Z,20.60
2022-08-03T05:47:19.129Z,20.70
2022-08-03T05:47:51.690Z,20.70
2022-08-03T05:48:24.450Z,20.70
2022-08-03T05:48:56.539Z,20.70
2022-08-03T05:49:28.554Z,20.70
2022-08-03T05:50:01.445Z,20.70
2022-08-03T05:50:33.566Z,20.70
2022-08-03T05:51:07.633Z,20.70
2022-08-03T05:51:40.465Z,20.70
2022-08-03T05:52:14.176Z,20.80
2022-08-03T05:52:49.210Z,20.80
2022-08-03T05:53:22.147Z,20.80
2022-08-03T05:53:53.955Z,20.90
2022-08-03T05:54:25.793Z,20.80
2022-08-03T05:55:18.982Z,20.80
2022-08-03T05:55:55.390Z,20.90
2022-08-03T05:56:29.049Z,20.90
2022-08-03T05:57:02.140Z,20.80
2022-08-03T05:57:34.147Z,20.90
2022-08-03T05:58:05.965Z,20.90
2022-08-03T05:58:37.918Z,20.90
2022-08-03T05:59:35.867Z,20.90
2022-08-03T06:00:03.933Z,20.90
2022-08-03T06:00:36.786Z,20.90
2022-08-03T06:01:08.742Z,20.90
2022-08-03T06:01:40.823Z,21.00
2022-08-03T06:02:13.792Z,21.00
2022-08-03T06:02:47.138Z,21.00
2022-08-03T06:03:20.082Z,21.00
2022-08-03T06:03:54.350Z,21.00
2022-08-03T06:04:26.254Z,21.00
2022-08-03T06:04:59.100Z,21.00
2022-08-03T06:05:31.512Z,21.00
2022-08-03T06:06:03.493Z,21.00
2022-08-03T06:06:36.403Z,21.10
2022-08-03T06:07:08.475Z,21.10
2022-08-03T06:07:40.419Z,21.10
2022-08-03T06:08:15.448Z,21.10
2022-08-03T06:08:48.729Z,21.10
2022-08-03T06:09:21.556Z,21.10
2022-08-03T06:10:35.455Z,21.20
2022-08-03T06:10:46.374Z,21.20
2022-08-03T06:11:18.261Z,21.20
2022-08-03T06:11:50.170Z,21.20
2022-08-03T06:12:22.130Z,21.20
2022-08-03T06:12:55.052Z,21.20
2022-08-03T06:13:26.936Z,21.20
2022-08-03T06:13:58.825Z,21.20
2022-08-03T06:14:31.665Z,21.20
2022-08-03T06:15:04.637Z,21.20
2022-08-03T06:15:36.571Z,21.20
2022-08-03T06:16:09.806Z,21.20
2022-08-03T06:16:41.667Z,21.30
2022-08-03T06:17:13.621Z,21.30
2022-08-03T06:17:50.682Z,21.30
2022-08-03T06:18:24.429Z,21.30
2022-08-03T06:18:57.274Z,21.30
2022-08-03T06:19:29.122Z,21.30
2022-08-03T06:20:01.126Z,21.40
2022-08-03T06:20:33.942Z,21.40
2022-08-03T06:21:11.075Z,21.40
2022-08-03T06:21:48.600Z,21.40
2022-08-03T06:22:21.412Z,21.40
2022-08-03T06:23:00.342Z,21.40
2022-08-03T06:23:54.383Z,21.50
2022-08-03T06:24:25.802Z,21.50
2022-08-03T06:24:58.937Z,21.50
2022-08-03T06:25:36.169Z,21.50
2022-08-03T06:26:08.957Z,21.50
2022-08-03T06:26:40.768Z,21.50
2022-08-03T06:27:12.614Z,21.50
2022-08-03T06:27:45.570Z,21.60
2022-08-03T06:28:42.413Z,21.60
2022-08-03T06:29:11.006Z,21.60
2022-08-03T06:29:43.011Z,21.60
2022-08-03T06:30:19.268Z,21.70
2022-08-03T06:30:53.777Z,21.70
2022-08-03T06:31:32.640Z,21.70
2022-08-03T06:32:07.201Z,21.80
2022-08-03T06:32:39.901Z,21.80
2022-08-03T06:33:13.141Z,21.80
2022-08-03T06:33:48.476Z,21.80
2022-08-03T06:34:37.789Z,21.80
2022-08-03T06:35:11.546Z,21.80
2022-08-03T06:35:43.460Z,21.80
2022-08-03T06:36:17.134Z,21.80
2022-08-03T06:36:51.069Z,21.80
2022-08-03T06:37:24.582Z,21.90
2022-08-03T06:37:56.942Z,21.90
2022-08-03T06:38:29.806Z,21.90
2022-08-03T06:39:02.145Z,22.00
2022-08-03T06:39:34.291Z,21.90
2022-08-03T06:40:08.115Z,22.00
2022-08-03T06:40:40.055Z,21.90
2022-08-03T06:41:11.965Z,21.90
2022-08-03T06:41:45.094Z,22.00
2022-08-03T06:42:17.240Z,22.00
2022-08-03T06:42:50.397Z,22.00
2022-08-03T06:43:22.298Z,22.00
2022-08-03T06:44:03.187Z,22.10
2022-08-03T06:44:38.628Z,22.00
2022-08-03T06:45:11.209Z,22.10
2022-08-03T06:45:43.097Z,22.10
2022-08-03T06:46:20.886Z,22.10
2022-08-03T06:46:52.953Z,22.10
2022-08-03T06:47:24.812Z,22.20
2022-08-03T06:48:05.862Z,22.20
2022-08-03T06:48:39.054Z,22.20
2022-08-03T06:49:10.973Z,22.20
2022-08-03T06:49:43.926Z,22.20
2022-08-03T06:50:38.062Z,22.20
2022-08-03T06:51:11.131Z,22.30
2022-08-03T06:52:05.785Z,22.30
2022-08-03T06:52:37.593Z,22.30
2022-08-03T06:53:18.222Z,22.30
2022-08-03T06:53:53.125Z,22.40
2022-08-03T06:54:25.974Z,22.40
2022-08-03T06:54:57.877Z,22.40
2022-08-03T06:55:31.339Z,22.40
2022-08-03T06:56:04.905Z,22.50
2022-08-03T06:56:36.736Z,22.50
2022-08-03T06:57:11.501Z,22.50
2022-08-03T06:57:43.519Z,22.50
2022-08-03T06:58:15.405Z,22.60
2022-08-03T06:58:48.729Z,22.60
2022-08-03T07:00:09.789Z,22.60
2022-08-03T07:00:14.592Z,22.60
2022-08-03T07:00:46.982Z,22.60
2022-08-03T07:01:18.996Z,22.60
2022-08-03T07:01:51.937Z,22.60
2022-08-03T07:02:24.008Z,22.60
2022-08-03T07:03:00.217Z,22.60
2022-08-03T07:03:33.141Z,22.70
2022-08-03T07:04:06.518Z,22.70
2022-08-03T07:04:38.382Z,22.70
2022-08-03T07:05:12.063Z,22.70
2022-08-03T07:05:46.472Z,22.70
2022-08-03T07:06:18.355Z,22.70
2022-08-03T07:06:51.347Z,22.80
2022-08-03T07:07:23.197Z,22.80
2022-08-03T07:07:57.479Z,22.80
2022-08-03T07:08:33.819Z,22.80
2022-08-03T07:09:06.570Z,22.80
2022-08-03T07:09:39.559Z,22.80
2022-08-03T07:10:13.702Z,22.80
2022-08-03T07:10:49.110Z,22.80
2022-08-03T07:11:20.965Z,22.80
2022-08-03T07:11:52.953Z,22.80
2022-08-03T07:12:29.393Z,22.90
2022-08-03T07:13:01.251Z,22.90
2022-08-03T07:13:33.105Z,22.90
2022-08-03T07:14:05.964Z,23.00
2022-08-03T07:14:37.843Z,22.90
2022-08-03T07:15:20.614Z,22.90
2022-08-03T07:16:03.368Z,23.00
2022-08-03T07:16:36.351Z,23.00
2022-08-03T07:17:11.993Z,23.00
2022-08-03T07:17:45.086Z,23.00
2022-08-03T07:18:17.003Z,23.00
2022-08-03T07:18:49.866Z,23.00
2022-08-03T07:19:23.073Z,23.10
2022-08-03T07:19:54.885Z,23.10
2022-08-03T07:20:32.233Z,23.10
2022-08-03T07:21:04.417Z,23.10
2022-08-03T07:21:37.313Z,23.20
2022-08-03T07:22:09.170Z,23.10
2022-08-03T07:22:41.046Z,23.20
2022-08-03T07:23:19.098Z,23.20
2022-08-03T07:23:51.350Z,23.30
2022-08-03T07:24:23.222Z,23.20
2022-08-03T07:24:56.401Z,23.30
2022-08-03T07:25:28.304Z,23.30
2022-08-03T07:26:01.128Z,23.30
2022-08-03T07:26:32.990Z,23.30
2022-08-03T07:27:05.861Z,23.30
2022-08-03T07:27:38.327Z,23.40
2022-08-03T07:28:11.394Z,23.30
2022-08-03T07:28:43.615Z,23.40
2022-08-03T07:29:15.678Z,23.40
2022-08-03T07:29:48.529Z,23.40
2022-08-03T07:30:20.370Z,23.40
2022-08-03T07:30:53.357Z,23.50
2022-08-03T07:31:25.207Z,23.40
2022-08-03T07:31:58.023Z,23.50
2022-08-03T07:32:31.305Z,23.50
2022-08-03T07:33:04.330Z,23.50
2022-08-03T07:33:36.263Z,23.50
2022-08-03T07:34:09.367Z,23.50
2022-08-03T07:34:42.569Z,23.50
2022-08-03T07:35:24.175Z,23.50
2022-08-03T07:35:57.045Z,23.60
2022-08-03T07:36:29.857Z,23.50
2022-08-03T07:37:01.751Z,23.60
2022-08-03T07:37:34.107Z,23.60